sensor_id;sensor_type;location;lat;lon;timestamp;P1;durP1;ratioP1;P2;durP2;ratioP2
71091;SDS011;58751;50.708;7.134;2022-08-16T00:01:54;7.40;;;4.30;;
71091;SDS011;58751;50.708;7.134;2022-08-16T00:04:19;4.50;;;4.20;;
71091;SDS011;58751;50.708;7.134;2022-08-16T00:06:44;4.90;;;4.47;;
71091;SDS011;58751;50.708;7.134;2022-08-16T00:09:09;4.60;;;4.20;;
71091;SDS011;58751;50.708;7.134;2022-08-16T00:11:36;6.50;;;4.40;;
71091;SDS011;58751;50.708;7.134;2022-08-16T00:14:03;4.60;;;4.30;;
71091;SDS011;58751;50.708;7.134;2022-08-16T00:16:29;5.27;;;4.77;;
71091;SDS011;58751;50.708;7.134;2022-08-16T00:18:54;4.50;;;4.10;;
71091;SDS011;58751;50.708;7.134;2022-08-16T00:21:19;3.90;;;3.70;;
71091;SDS011;58751;50.708;7.134;2022-08-16T00:23:45;4.90;;;4.50;;
71091;SDS011;58751;50.708;7.134;2022-08-16T00:26:10;4.40;;;4.10;;
71091;SDS011;58751;50.708;7.134;2022-08-16T00:28:36;4.47;;;4.17;;
71091;SDS011;58751;50.708;7.134;2022-08-16T00:31:02;4.60;;;4.13;;
71091;SDS011;58751;50.708;7.134;2022-08-16T00:33:27;6.77;;;4.20;;
71091;SDS011;58751;50.708;7.134;2022-08-16T00:35:52;7.20;;;4.37;;
71091;SDS011;58751;50.708;7.134;2022-08-16T00:38:18;4.80;;;4.40;;
71091;SDS011;58751;50.708;7.134;2022-08-16T00:40:44;4.43;;;4.03;;
71091;SDS011;58751;50.708;7.134;2022-08-16T00:43:12;8.10;;;4.27;;
71091;SDS011;58751;50.708;7.134;2022-08-16T00:45:40;5.53;;;3.80;;
71091;SDS011;58751;50.708;7.134;2022-08-16T00:48:08;5.20;;;4.37;;
71091;SDS011;58751;50.708;7.134;2022-08-16T00:50:35;6.40;;;4.10;;
71091;SDS011;58751;50.708;7.134;2022-08-16T00:53:01;4.43;;;4.03;;
71091;SDS011;58751;50.708;7.134;2022-08-16T00:55:26;4.37;;;3.97;;
71091;SDS011;58751;50.708;7.134;2022-08-16T00:57:52;4.37;;;4.07;;
71091;SDS011;58751;50.708;7.134;2022-08-16T01:00:18;4.13;;;3.83;;
71091;SDS011;58751;50.708;7.134;2022-08-16T01:02:45;3.83;;;3.53;;
71091;SDS011;58751;50.708;7.134;2022-08-16T01:05:10;3.80;;;3.50;;
71091;SDS011;58751;50.708;7.134;2022-08-16T01:07:35;3.83;;;3.50;;
71091;SDS011;58751;50.708;7.134;2022-08-16T01:10:01;4.33;;;3.90;;
71091;SDS011;58751;50.708;7.134;2022-08-16T01:12:26;4.50;;;4.10;;
71091;SDS011;58751;50.708;7.134;2022-08-16T01:14:53;4.40;;;4.00;;
71091;SDS011;58751;50.708;7.134;2022-08-16T01:17:19;4.33;;;3.90;;
71091;SDS011;58751;50.708;7.134;2022-08-16T01:19:47;4.30;;;3.73;;
71091;SDS011;58751;50.708;7.134;2022-08-16T01:22:15;5.23;;;3.50;;
71091;SDS011;58751;50.708;7.134;2022-08-16T01:24:44;4.30;;;3.90;;
71091;SDS011;58751;50.708;7.134;2022-08-16T01:27:11;3.67;;;3.37;;
71091;SDS011;58751;50.708;7.134;2022-08-16T01:29:39;3.50;;;3.30;;
71091;SDS011;58751;50.708;7.134;2022-08-16T01:32:05;4.10;;;3.90;;
71091;SDS011;58751;50.708;7.134;2022-08-16T01:34:31;4.27;;;3.87;;
71091;SDS011;58751;50.708;7.134;2022-08-16T01:37:00;3.83;;;3.60;;
71091;SDS011;58751;50.708;7.134;2022-08-16T01:39:25;3.43;;;3.23;;
71091;SDS011;58751;50.708;7.134;2022-08-16T01:41:52;4.03;;;3.73;;
71091;SDS011;58751;50.708;7.134;2022-08-16T01:44:17;4.00;;;3.63;;
71091;SDS011;58751;50.708;7.134;2022-08-16T01:46:43;3.77;;;3.47;;
71091;SDS011;58751;50.708;7.134;2022-08-16T01:49:10;3.90;;;3.60;;
71091;SDS011;58751;50.708;7.134;2022-08-16T01:51:36;4.27;;;3.90;;
71091;SDS011;58751;50.708;7.134;2022-08-16T01:54:02;4.00;;;3.80;;
71091;SDS011;58751;50.708;7.134;2022-08-16T01:56:27;4.07;;;3.77;;
71091;SDS011;58751;50.708;7.134;2022-08-16T01:58:56;5.03;;;3.60;;
71091;SDS011;58751;50.708;7.134;2022-08-16T02:01:22;4.07;;;3.77;;
71091;SDS011;58751;50.708;7.134;2022-08-16T02:03:47;4.73;;;4.20;;
71091;SDS011;58751;50.708;7.134;2022-08-16T02:06:12;13.80;;;3.53;;
71091;SDS011;58751;50.708;7.134;2022-08-16T02:08:38;4.07;;;3.77;;
71091;SDS011;58751;50.708;7.134;2022-08-16T02:11:04;4.37;;;3.30;;
71091;SDS011;58751;50.708;7.134;2022-08-16T02:13:29;4.10;;;3.80;;
71091;SDS011;58751;50.708;7.134;2022-08-16T02:15:56;4.37;;;4.00;;
71091;SDS011;58751;50.708;7.134;2022-08-16T02:18:21;3.80;;;3.60;;
71091;SDS011;58751;50.708;7.134;2022-08-16T02:20:47;4.37;;;4.07;;
71091;SDS011;58751;50.708;7.134;2022-08-16T02:23:13;4.07;;;3.70;;
71091;SDS011;58751;50.708;7.134;2022-08-16T02:25:38;5.73;;;4.80;;
71091;SDS011;58751;50.708;7.134;2022-08-16T02:28:04;5.80;;;4.40;;
71091;SDS011;58751;50.708;7.134;2022-08-16T02:30:29;4.97;;;4.57;;
71091;SDS011;58751;50.708;7.134;2022-08-16T02:32:56;4.20;;;3.63;;
71091;SDS011;58751;50.708;7.134;2022-08-16T02:35:21;4.33;;;3.93;;
71091;SDS011;58751;50.708;7.134;2022-08-16T02:37:47;4.00;;;3.70;;
71091;SDS011;58751;50.708;7.134;2022-08-16T02:40:12;4.63;;;4.23;;
71091;SDS011;58751;50.708;7.134;2022-08-16T02:42:38;4.80;;;4.40;;
71091;SDS011;58751;50.708;7.134;2022-08-16T02:45:04;6.70;;;4.17;;
71091;SDS011;58751;50.708;7.134;2022-08-16T02:47:29;6.33;;;4.87;;
71091;SDS011;58751;50.708;7.134;2022-08-16T02:49:56;4.10;;;3.80;;
71091;SDS011;58751;50.708;7.134;2022-08-16T02:52:21;3.93;;;3.63;;
71091;SDS011;58751;50.708;7.134;2022-08-16T02:54:47;4.27;;;4.03;;
71091;SDS011;58751;50.708;7.134;2022-08-16T02:57:12;4.33;;;4.03;;
71091;SDS011;58751;50.708;7.134;2022-08-16T02:59:37;5.13;;;4.73;;
71091;SDS011;58751;50.708;7.134;2022-08-16T03:02:03;4.30;;;3.97;;
71091;SDS011;58751;50.708;7.134;2022-08-16T03:04:28;4.60;;;4.20;;
71091;SDS011;58751;50.708;7.134;2022-08-16T03:06:55;5.50;;;4.53;;
71091;SDS011;58751;50.708;7.134;2022-08-16T03:09:20;4.80;;;4.50;;
71091;SDS011;58751;50.708;7.134;2022-08-16T03:11:45;4.90;;;4.37;;
71091;SDS011;58751;50.708;7.134;2022-08-16T03:14:11;4.70;;;4.40;;
71091;SDS011;58751;50.708;7.134;2022-08-16T03:16:36;5.30;;;4.80;;
71091;SDS011;58751;50.708;7.134;2022-08-16T03:19:01;5.07;;;4.67;;
71091;SDS011;58751;50.708;7.134;2022-08-16T03:21:26;5.83;;;4.40;;
71091;SDS011;58751;50.708;7.134;2022-08-16T03:23:53;4.57;;;4.27;;
71091;SDS011;58751;50.708;7.134;2022-08-16T03:26:19;4.73;;;4.10;;
71091;SDS011;58751;50.708;7.134;2022-08-16T03:28:44;4.17;;;3.87;;
71091;SDS011;58751;50.708;7.134;2022-08-16T03:31:09;5.40;;;5.00;;
71091;SDS011;58751;50.708;7.134;2022-08-16T03:33:35;5.30;;;4.80;;
71091;SDS011;58751;50.708;7.134;2022-08-16T03:36:00;5.00;;;4.60;;
71091;SDS011;58751;50.708;7.134;2022-08-16T03:38:26;4.90;;;4.53;;
71091;SDS011;58751;50.708;7.134;2022-08-16T03:40:53;6.03;;;5.47;;
71091;SDS011;58751;50.708;7.134;2022-08-16T03:43:18;6.30;;;5.30;;
71091;SDS011;58751;50.708;7.134;2022-08-16T03:45:43;5.53;;;5.03;;
71091;SDS011;58751;50.708;7.134;2022-08-16T03:48:09;6.27;;;4.57;;
71091;SDS011;58751;50.708;7.134;2022-08-16T03:50:34;5.33;;;4.83;;
71091;SDS011;58751;50.708;7.134;2022-08-16T03:53:00;5.70;;;5.30;;
71091;SDS011;58751;50.708;7.134;2022-08-16T03:55:25;5.10;;;4.70;;
71091;SDS011;58751;50.708;7.134;2022-08-16T03:57:52;4.80;;;4.50;;
71091;SDS011;58751;50.708;7.134;2022-08-16T04:00:18;5.73;;;5.20;;
71091;SDS011;58751;50.708;7.134;2022-08-16T04:02:44;4.30;;;3.97;;
71091;SDS011;58751;50.708;7.134;2022-08-16T04:05:10;5.27;;;4.87;;
71091;SDS011;58751;50.708;7.134;2022-08-16T04:07:35;4.73;;;4.43;;
71091;SDS011;58751;50.708;7.134;2022-08-16T04:10:01;4.70;;;4.40;;
71091;SDS011;58751;50.708;7.134;2022-08-16T04:12:26;5.00;;;4.70;;
71091;SDS011;58751;50.708;7.134;2022-08-16T04:14:53;5.57;;;5.07;;
71091;SDS011;58751;50.708;7.134;2022-08-16T04:17:18;5.43;;;4.93;;
71091;SDS011;58751;50.708;7.134;2022-08-16T04:19:43;5.33;;;4.93;;
71091;SDS011;58751;50.708;7.134;2022-08-16T04:22:08;5.10;;;4.57;;
71091;SDS011;58751;50.708;7.134;2022-08-16T04:24:33;5.63;;;5.23;;
71091;SDS011;58751;50.708;7.134;2022-08-16T04:26:59;5.93;;;5.33;;
71091;SDS011;58751;50.708;7.134;2022-08-16T04:29:24;5.47;;;5.07;;
71091;SDS011;58751;50.708;7.134;2022-08-16T04:31:51;4.63;;;4.30;;
71091;SDS011;58751;50.708;7.134;2022-08-16T04:34:17;4.47;;;4.17;;
71091;SDS011;58751;50.708;7.134;2022-08-16T04:36:42;5.97;;;5.20;;
71091;SDS011;58751;50.708;7.134;2022-08-16T04:39:07;5.47;;;4.87;;
71091;SDS011;58751;50.708;7.134;2022-08-16T04:41:32;5.80;;;5.30;;
71091;SDS011;58751;50.708;7.134;2022-08-16T04:43:58;5.33;;;4.83;;
71091;SDS011;58751;50.708;7.134;2022-08-16T04:46:23;5.63;;;5.20;;
71091;SDS011;58751;50.708;7.134;2022-08-16T04:48:49;7.50;;;5.47;;
71091;SDS011;58751;50.708;7.134;2022-08-16T04:51:15;6.23;;;5.53;;
71091;SDS011;58751;50.708;7.134;2022-08-16T04:53:40;6.30;;;5.80;;
71091;SDS011;58751;50.708;7.134;2022-08-16T04:56:05;6.03;;;5.40;;
71091;SDS011;58751;50.708;7.134;2022-08-16T04:58:30;8.23;;;6.17;;
71091;SDS011;58751;50.708;7.134;2022-08-16T05:00:56;5.63;;;5.13;;
71091;SDS011;58751;50.708;7.134;2022-08-16T05:03:21;5.83;;;5.43;;
71091;SDS011;58751;50.708;7.134;2022-08-16T05:05:48;5.77;;;5.37;;
71091;SDS011;58751;50.708;7.134;2022-08-16T05:08:13;5.63;;;5.17;;
71091;SDS011;58751;50.708;7.134;2022-08-16T05:10:38;6.10;;;5.47;;
71091;SDS011;58751;50.708;7.134;2022-08-16T05:13:04;5.97;;;5.47;;
71091;SDS011;58751;50.708;7.134;2022-08-16T05:15:30;7.87;;;4.97;;
71091;SDS011;58751;50.708;7.134;2022-08-16T05:17:55;4.93;;;4.63;;
71091;SDS011;58751;50.708;7.134;2022-08-16T05:20:21;5.73;;;5.30;;
71091;SDS011;58751;50.708;7.134;2022-08-16T05:22:47;6.40;;;6.00;;
71091;SDS011;58751;50.708;7.134;2022-08-16T05:25:12;6.80;;;6.20;;
71091;SDS011;58751;50.708;7.134;2022-08-16T05:27:38;6.33;;;5.47;;
71091;SDS011;58751;50.708;7.134;2022-08-16T05:30:04;6.37;;;5.77;;
71091;SDS011;58751;50.708;7.134;2022-08-16T05:32:30;12.60;;;6.30;;
71091;SDS011;58751;50.708;7.134;2022-08-16T05:34:55;5.90;;;5.30;;
71091;SDS011;58751;50.708;7.134;2022-08-16T05:37:20;6.60;;;6.10;;
71091;SDS011;58751;50.708;7.134;2022-08-16T05:39:47;6.03;;;5.63;;
71091;SDS011;58751;50.708;7.134;2022-08-16T05:42:12;5.97;;;5.47;;
71091;SDS011;58751;50.708;7.134;2022-08-16T05:44:37;5.53;;;5.13;;
71091;SDS011;58751;50.708;7.134;2022-08-16T05:47:02;6.80;;;5.77;;
71091;SDS011;58751;50.708;7.134;2022-08-16T05:49:28;6.30;;;5.67;;
71091;SDS011;58751;50.708;7.134;2022-08-16T05:51:54;7.10;;;6.40;;
71091;SDS011;58751;50.708;7.134;2022-08-16T05:54:19;6.67;;;4.80;;
71091;SDS011;58751;50.708;7.134;2022-08-16T05:56:45;5.30;;;4.90;;
71091;SDS011;58751;50.708;7.134;2022-08-16T05:59:11;5.00;;;4.70;;
71091;SDS011;58751;50.708;7.134;2022-08-16T06:01:37;5.40;;;5.10;;
71091;SDS011;58751;50.708;7.134;2022-08-16T06:04:02;5.73;;;4.90;;
71091;SDS011;58751;50.708;7.134;2022-08-16T06:06:28;5.30;;;4.90;;
71091;SDS011;58751;50.708;7.134;2022-08-16T06:08:53;5.80;;;5.30;;
71091;SDS011;58751;50.708;7.134;2022-08-16T06:11:18;5.90;;;5.50;;
71091;SDS011;58751;50.708;7.134;2022-08-16T06:13:45;5.63;;;5.13;;
71091;SDS011;58751;50.708;7.134;2022-08-16T06:16:10;8.07;;;5.33;;
71091;SDS011;58751;50.708;7.134;2022-08-16T06:18:35;4.90;;;4.60;;
71091;SDS011;58751;50.708;7.134;2022-08-16T06:21:00;4.97;;;4.57;;
71091;SDS011;58751;50.708;7.134;2022-08-16T06:23:26;5.63;;;5.10;;
71091;SDS011;58751;50.708;7.134;2022-08-16T06:25:51;5.70;;;5.20;;
71091;SDS011;58751;50.708;7.134;2022-08-16T06:28:17;5.40;;;4.90;;
71091;SDS011;58751;50.708;7.134;2022-08-16T06:30:44;7.90;;;4.43;;
71091;SDS011;58751;50.708;7.134;2022-08-16T06:33:10;4.40;;;4.10;;
71091;SDS011;58751;50.708;7.134;2022-08-16T06:35:35;6.00;;;3.67;;
71091;SDS011;58751;50.708;7.134;2022-08-16T06:38:00;5.43;;;4.93;;
71091;SDS011;58751;50.708;7.134;2022-08-16T06:40:25;5.10;;;4.70;;
71091;SDS011;58751;50.708;7.134;2022-08-16T06:42:51;5.37;;;4.90;;
71091;SDS011;58751;50.708;7.134;2022-08-16T06:45:16;4.33;;;3.93;;
71091;SDS011;58751;50.708;7.134;2022-08-16T06:47:43;4.43;;;4.13;;
71091;SDS011;58751;50.708;7.134;2022-08-16T06:50:08;4.77;;;4.37;;
71091;SDS011;58751;50.708;7.134;2022-08-16T06:52:33;5.30;;;4.90;;
71091;SDS011;58751;50.708;7.134;2022-08-16T06:54:59;4.60;;;4.20;;
71091;SDS011;58751;50.708;7.134;2022-08-16T06:57:24;6.53;;;4.37;;
71091;SDS011;58751;50.708;7.134;2022-08-16T06:59:49;4.80;;;3.77;;
71091;SDS011;58751;50.708;7.134;2022-08-16T07:02:14;5.53;;;4.20;;
71091;SDS011;58751;50.708;7.134;2022-08-16T07:04:41;4.57;;;4.20;;
71091;SDS011;58751;50.708;7.134;2022-08-16T07:07:07;4.83;;;4.43;;
71091;SDS011;58751;50.708;7.134;2022-08-16T07:09:32;4.07;;;3.77;;
71091;SDS011;58751;50.708;7.134;2022-08-16T07:11:57;6.57;;;4.30;;
71091;SDS011;58751;50.708;7.134;2022-08-16T07:14:22;3.80;;;3.60;;
71091;SDS011;58751;50.708;7.134;2022-08-16T07:16:48;4.73;;;4.10;;
71091;SDS011;58751;50.708;7.134;2022-08-16T07:19:13;4.20;;;4.00;;
71091;SDS011;58751;50.708;7.134;2022-08-16T07:21:39;5.97;;;4.37;;
71091;SDS011;58751;50.708;7.134;2022-08-16T07:24:05;4.23;;;3.93;;
71091;SDS011;58751;50.708;7.134;2022-08-16T07:26:30;4.20;;;3.90;;
71091;SDS011;58751;50.708;7.134;2022-08-16T07:28:55;4.73;;;4.23;;
71091;SDS011;58751;50.708;7.134;2022-08-16T07:31:21;3.43;;;3.23;;
71091;SDS011;58751;50.708;7.134;2022-08-16T07:33:46;5.33;;;4.10;;
71091;SDS011;58751;50.708;7.134;2022-08-16T07:36:11;4.10;;;3.90;;
71091;SDS011;58751;50.708;7.134;2022-08-16T07:38:38;4.53;;;4.10;;
71091;SDS011;58751;50.708;7.134;2022-08-16T07:41:04;4.20;;;3.90;;
71091;SDS011;58751;50.708;7.134;2022-08-16T07:43:29;4.37;;;3.90;;
71091;SDS011;58751;50.708;7.134;2022-08-16T07:45:55;5.50;;;4.10;;
71091;SDS011;58751;50.708;7.134;2022-08-16T07:48:20;4.83;;;4.43;;
71091;SDS011;58751;50.708;7.134;2022-08-16T07:50:45;4.00;;;3.70;;
71091;SDS011;58751;50.708;7.134;2022-08-16T07:53:11;4.47;;;4.17;;
71091;SDS011;58751;50.708;7.134;2022-08-16T07:55:38;3.90;;;3.50;;
71091;SDS011;58751;50.708;7.134;2022-08-16T07:58:04;3.70;;;3.40;;
71091;SDS011;58751;50.708;7.134;2022-08-16T08:00:29;3.90;;;3.60;;
71091;SDS011;58751;50.708;7.134;2022-08-16T08:02:54;4.23;;;3.83;;
71091;SDS011;58751;50.708;7.134;2022-08-16T08:05:19;4.77;;;4.37;;
71091;SDS011;58751;50.708;7.134;2022-08-16T08:07:45;4.10;;;3.73;;
71091;SDS011;58751;50.708;7.134;2022-08-16T08:10:10;4.40;;;4.10;;
71091;SDS011;58751;50.708;7.134;2022-08-16T08:12:37;6.57;;;4.37;;
71091;SDS011;58751;50.708;7.134;2022-08-16T08:15:03;4.50;;;4.20;;
71091;SDS011;58751;50.708;7.134;2022-08-16T08:17:28;4.17;;;3.87;;
71091;SDS011;58751;50.708;7.134;2022-08-16T08:19:53;4.50;;;4.10;;
71091;SDS011;58751;50.708;7.134;2022-08-16T08:22:18;4.17;;;3.90;;
71091;SDS011;58751;50.708;7.134;2022-08-16T08:24:44;5.07;;;4.30;;
71091;SDS011;58751;50.708;7.134;2022-08-16T08:27:09;4.80;;;4.40;;
71091;SDS011;58751;50.708;7.134;2022-08-16T08:29:35;4.43;;;4.13;;
71091;SDS011;58751;50.708;7.134;2022-08-16T08:32:01;4.50;;;4.20;;
71091;SDS011;58751;50.708;7.134;2022-08-16T08:34:26;4.43;;;4.03;;
71091;SDS011;58751;50.708;7.134;2022-08-16T08:36:51;4.27;;;3.90;;
71091;SDS011;58751;50.708;7.134;2022-08-16T08:39:17;5.00;;;4.60;;
71091;SDS011;58751;50.708;7.134;2022-08-16T08:41:42;5.10;;;4.57;;
71091;SDS011;58751;50.708;7.134;2022-08-16T08:44:08;3.90;;;3.60;;
71091;SDS011;58751;50.708;7.134;2022-08-16T08:46:35;4.73;;;4.27;;
71091;SDS011;58751;50.708;7.134;2022-08-16T08:49:00;4.33;;;3.93;;
71091;SDS011;58751;50.708;7.134;2022-08-16T08:51:26;4.50;;;3.97;;
71091;SDS011;58751;50.708;7.134;2022-08-16T08:53:51;7.40;;;4.23;;
71091;SDS011;58751;50.708;7.134;2022-08-16T08:56:17;4.17;;;3.90;;
71091;SDS011;58751;50.708;7.134;2022-08-16T08:58:42;4.57;;;4.17;;
71091;SDS011;58751;50.708;7.134;2022-08-16T09:01:07;4.13;;;3.80;;
71091;SDS011;58751;50.708;7.134;2022-08-16T09:03:34;4.47;;;4.03;;
71091;SDS011;58751;50.708;7.134;2022-08-16T09:06:00;4.73;;;4.30;;
71091;SDS011;58751;50.708;7.134;2022-08-16T09:08:25;4.40;;;4.03;;
71091;SDS011;58751;50.708;7.134;2022-08-16T09:10:51;4.50;;;4.20;;
71091;SDS011;58751;50.708;7.134;2022-08-16T09:13:16;6.80;;;4.30;;
71091;SDS011;58751;50.708;7.134;2022-08-16T09:15:41;4.77;;;4.47;;
71091;SDS011;58751;50.708;7.134;2022-08-16T09:18:06;4.87;;;4.33;;
71091;SDS011;58751;50.708;7.134;2022-08-16T09:20:33;4.13;;;3.83;;
71091;SDS011;58751;50.708;7.134;2022-08-16T09:22:58;4.43;;;4.00;;
71091;SDS011;58751;50.708;7.134;2022-08-16T09:25:24;4.37;;;4.00;;
71091;SDS011;58751;50.708;7.134;2022-08-16T09:27:49;4.50;;;4.20;;
71091;SDS011;58751;50.708;7.134;2022-08-16T09:30:15;5.03;;;4.57;;
71091;SDS011;58751;50.708;7.134;2022-08-16T09:32:40;4.73;;;4.20;;
71091;SDS011;58751;50.708;7.134;2022-08-16T09:35:06;4.30;;;4.00;;
71091;SDS011;58751;50.708;7.134;2022-08-16T09:37:33;4.30;;;4.00;;
71091;SDS011;58751;50.708;7.134;2022-08-16T09:39:58;4.60;;;4.27;;
71091;SDS011;58751;50.708;7.134;2022-08-16T09:42:24;5.00;;;4.50;;
71091;SDS011;58751;50.708;7.134;2022-08-16T09:44:49;4.50;;;4.17;;
71091;SDS011;58751;50.708;7.134;2022-08-16T09:47:14;4.80;;;4.40;;
71091;SDS011;58751;50.708;7.134;2022-08-16T09:49:39;4.60;;;4.30;;
71091;SDS011;58751;50.708;7.134;2022-08-16T09:52:05;4.20;;;3.80;;
71091;SDS011;58751;50.708;7.134;2022-08-16T09:54:31;7.00;;;3.57;;
71091;SDS011;58751;50.708;7.134;2022-08-16T09:56:57;5.00;;;4.60;;
71091;SDS011;58751;50.708;7.134;2022-08-16T09:59:23;5.10;;;4.80;;
71091;SDS011;58751;50.708;7.134;2022-08-16T10:01:49;4.33;;;4.03;;
71091;SDS011;58751;50.708;7.134;2022-08-16T10:04:14;4.33;;;3.93;;
71091;SDS011;58751;50.708;7.134;2022-08-16T10:06:40;5.07;;;4.43;;
71091;SDS011;58751;50.708;7.134;2022-08-16T10:09:06;5.43;;;4.93;;
71091;SDS011;58751;50.708;7.134;2022-08-16T10:11:32;4.10;;;3.70;;
71091;SDS011;58751;50.708;7.134;2022-08-16T10:13:58;4.63;;;4.30;;
71091;SDS011;58751;50.708;7.134;2022-08-16T10:16:23;5.07;;;4.57;;
71091;SDS011;58751;50.708;7.134;2022-08-16T10:18:48;4.63;;;4.17;;
71091;SDS011;58751;50.708;7.134;2022-08-16T10:21:13;4.63;;;4.33;;
71091;SDS011;58751;50.708;7.134;2022-08-16T10:23:39;5.10;;;4.40;;
71091;SDS011;58751;50.708;7.134;2022-08-16T10:26:04;10.97;;;4.80;;
71091;SDS011;58751;50.708;7.134;2022-08-16T10:28:31;4.40;;;4.00;;
71091;SDS011;58751;50.708;7.134;2022-08-16T10:30:56;3.60;;;3.40;;
71091;SDS011;58751;50.708;7.134;2022-08-16T10:33:21;5.00;;;4.20;;
71091;SDS011;58751;50.708;7.134;2022-08-16T10:35:47;4.20;;;3.80;;
71091;SDS011;58751;50.708;7.134;2022-08-16T10:38:12;5.40;;;4.40;;
71091;SDS011;58751;50.708;7.134;2022-08-16T10:40:38;6.00;;;4.07;;
71091;SDS011;58751;50.708;7.134;2022-08-16T10:43:03;4.40;;;4.10;;
71091;SDS011;58751;50.708;7.134;2022-08-16T10:45:30;4.53;;;4.23;;
71091;SDS011;58751;50.708;7.134;2022-08-16T10:47:56;6.50;;;4.07;;
71091;SDS011;58751;50.708;7.134;2022-08-16T10:50:21;3.90;;;3.70;;
71091;SDS011;58751;50.708;7.134;2022-08-16T10:52:47;5.63;;;4.17;;
71091;SDS011;58751;50.708;7.134;2022-08-16T10:55:12;4.40;;;4.10;;
71091;SDS011;58751;50.708;7.134;2022-08-16T10:57:37;4.13;;;3.73;;
71091;SDS011;58751;50.708;7.134;2022-08-16T11:00:07;4.30;;;3.97;;
71091;SDS011;58751;50.708;7.134;2022-08-16T11:02:34;4.50;;;4.23;;
71091;SDS011;58751;50.708;7.134;2022-08-16T11:04:59;4.63;;;4.07;;
71091;SDS011;58751;50.708;7.134;2022-08-16T11:07:24;5.60;;;4.47;;
71091;SDS011;58751;50.708;7.134;2022-08-16T11:09:50;6.07;;;3.70;;
71091;SDS011;58751;50.708;7.134;2022-08-16T11:12:15;4.60;;;4.17;;
71091;SDS011;58751;50.708;7.134;2022-08-16T11:14:40;4.50;;;4.10;;
71091;SDS011;58751;50.708;7.134;2022-08-16T11:17:05;4.60;;;4.20;;
71091;SDS011;58751;50.708;7.134;2022-08-16T11:19:32;5.10;;;4.07;;
71091;SDS011;58751;50.708;7.134;2022-08-16T11:21:57;5.30;;;4.07;;
71091;SDS011;58751;50.708;7.134;2022-08-16T11:24:23;4.20;;;3.90;;
71091;SDS011;58751;50.708;7.134;2022-08-16T11:26:48;4.13;;;3.83;;
71091;SDS011;58751;50.708;7.134;2022-08-16T11:29:13;4.10;;;3.83;;
71091;SDS011;58751;50.708;7.134;2022-08-16T11:31:38;6.63;;;4.03;;
71091;SDS011;58751;50.708;7.134;2022-08-16T11:34:04;4.97;;;4.60;;
71091;SDS011;58751;50.708;7.134;2022-08-16T11:36:30;5.00;;;4.00;;
71091;SDS011;58751;50.708;7.134;2022-08-16T11:38:56;5.00;;;4.50;;
71091;SDS011;58751;50.708;7.134;2022-08-16T11:41:21;4.47;;;4.07;;
71091;SDS011;58751;50.708;7.134;2022-08-16T11:43:46;5.57;;;4.00;;
71091;SDS011;58751;50.708;7.134;2022-08-16T11:46:12;4.33;;;3.70;;
71091;SDS011;58751;50.708;7.134;2022-08-16T11:48:37;4.07;;;3.73;;
71091;SDS011;58751;50.708;7.134;2022-08-16T11:51:03;5.63;;;4.30;;
71091;SDS011;58751;50.708;7.134;2022-08-16T11:53:30;4.47;;;3.53;;
71091;SDS011;58751;50.708;7.134;2022-08-16T11:55:55;6.67;;;3.27;;
71091;SDS011;58751;50.708;7.134;2022-08-16T11:58:21;4.00;;;3.60;;
71091;SDS011;58751;50.708;7.134;2022-08-16T12:00:47;4.43;;;4.00;;
71091;SDS011;58751;50.708;7.134;2022-08-16T12:03:12;4.10;;;3.53;;
71091;SDS011;58751;50.708;7.134;2022-08-16T12:05:38;4.70;;;4.30;;
71091;SDS011;58751;50.708;7.134;2022-08-16T12:08:04;4.47;;;4.03;;
71091;SDS011;58751;50.708;7.134;2022-08-16T12:10:31;5.03;;;3.93;;
71091;SDS011;58751;50.708;7.134;2022-08-16T12:12:57;3.57;;;3.17;;
71091;SDS011;58751;50.708;7.134;2022-08-16T12:15:22;4.03;;;3.73;;
71091;SDS011;58751;50.708;7.134;2022-08-16T12:17:47;6.27;;;3.40;;
71091;SDS011;58751;50.708;7.134;2022-08-16T12:20:14;3.90;;;3.60;;
71091;SDS011;58751;50.708;7.134;2022-08-16T12:22:39;3.77;;;3.37;;
71091;SDS011;58751;50.708;7.134;2022-08-16T12:25:05;4.03;;;3.60;;
71091;SDS011;58751;50.708;7.134;2022-08-16T12:27:32;4.10;;;3.57;;
71091;SDS011;58751;50.708;7.134;2022-08-16T12:29:58;4.17;;;3.80;;
71091;SDS011;58751;50.708;7.134;2022-08-16T12:32:23;5.53;;;3.40;;
71091;SDS011;58751;50.708;7.134;2022-08-16T12:34:48;5.57;;;4.07;;
71091;SDS011;58751;50.708;7.134;2022-08-16T12:37:13;5.40;;;3.40;;
71091;SDS011;58751;50.708;7.134;2022-08-16T12:39:39;3.20;;;3.00;;
71091;SDS011;58751;50.708;7.134;2022-08-16T12:42:04;4.10;;;3.70;;
71091;SDS011;58751;50.708;7.134;2022-08-16T12:44:31;6.03;;;3.73;;
71091;SDS011;58751;50.708;7.134;2022-08-16T12:46:56;3.70;;;3.40;;
71091;SDS011;58751;50.708;7.134;2022-08-16T12:49:21;4.93;;;3.17;;
71091;SDS011;58751;50.708;7.134;2022-08-16T12:51:46;7.37;;;3.73;;
71091;SDS011;58751;50.708;7.134;2022-08-16T12:54:12;4.20;;;3.60;;
71091;SDS011;58751;50.708;7.134;2022-08-16T12:56:37;6.27;;;4.00;;
71091;SDS011;58751;50.708;7.134;2022-08-16T12:59:04;3.87;;;3.57;;
71091;SDS011;58751;50.708;7.134;2022-08-16T13:01:32;3.93;;;3.43;;
71091;SDS011;58751;50.708;7.134;2022-08-16T13:03:58;3.77;;;3.47;;
71091;SDS011;58751;50.708;7.134;2022-08-16T13:06:24;6.17;;;4.50;;
71091;SDS011;58751;50.708;7.134;2022-08-16T13:08:49;4.23;;;3.93;;
71091;SDS011;58751;50.708;7.134;2022-08-16T13:11:15;4.50;;;4.20;;
71091;SDS011;58751;50.708;7.134;2022-08-16T13:13:42;4.97;;;4.03;;
71091;SDS011;58751;50.708;7.134;2022-08-16T13:16:07;4.70;;;4.30;;
71091;SDS011;58751;50.708;7.134;2022-08-16T13:18:33;5.33;;;4.00;;
71091;SDS011;58751;50.708;7.134;2022-08-16T13:20:59;3.90;;;3.50;;
71091;SDS011;58751;50.708;7.134;2022-08-16T13:23:24;7.53;;;4.30;;
71091;SDS011;58751;50.708;7.134;2022-08-16T13:25:49;3.93;;;3.63;;
71091;SDS011;58751;50.708;7.134;2022-08-16T13:28:15;4.10;;;3.77;;
71091;SDS011;58751;50.708;7.134;2022-08-16T13:30:41;5.67;;;4.20;;
71091;SDS011;58751;50.708;7.134;2022-08-16T13:33:07;4.67;;;4.10;;
71091;SDS011;58751;50.708;7.134;2022-08-16T13:35:34;4.57;;;4.27;;
71091;SDS011;58751;50.708;7.134;2022-08-16T13:37:59;4.57;;;4.27;;
71091;SDS011;58751;50.708;7.134;2022-08-16T13:40:24;4.20;;;3.90;;
71091;SDS011;58751;50.708;7.134;2022-08-16T13:42:51;4.00;;;3.60;;
71091;SDS011;58751;50.708;7.134;2022-08-16T13:45:16;3.40;;;3.20;;
71091;SDS011;58751;50.708;7.134;2022-08-16T13:47:41;6.50;;;4.00;;
71091;SDS011;58751;50.708;7.134;2022-08-16T13:50:07;6.47;;;3.97;;
71091;SDS011;58751;50.708;7.134;2022-08-16T13:52:34;6.17;;;3.67;;
71091;SDS011;58751;50.708;7.134;2022-08-16T13:55:00;4.00;;;3.80;;
71091;SDS011;58751;50.708;7.134;2022-08-16T13:57:25;4.50;;;4.10;;
71091;SDS011;58751;50.708;7.134;2022-08-16T13:59:50;7.30;;;3.80;;
71091;SDS011;58751;50.708;7.134;2022-08-16T14:02:15;6.53;;;3.87;;
71091;SDS011;58751;50.708;7.134;2022-08-16T14:04:41;6.90;;;4.07;;
71091;SDS011;58751;50.708;7.134;2022-08-16T14:07:07;4.83;;;4.43;;
71091;SDS011;58751;50.708;7.134;2022-08-16T14:09:34;4.77;;;4.40;;
71091;SDS011;58751;50.708;7.134;2022-08-16T14:12:00;3.40;;;3.20;;
71091;SDS011;58751;50.708;7.134;2022-08-16T14:14:25;5.20;;;4.20;;
71091;SDS011;58751;50.708;7.134;2022-08-16T14:16:51;6.43;;;4.00;;
71091;SDS011;58751;50.708;7.134;2022-08-16T14:19:16;4.87;;;3.70;;
71091;SDS011;58751;50.708;7.134;2022-08-16T14:21:41;3.40;;;3.10;;
71091;SDS011;58751;50.708;7.134;2022-08-16T14:24:07;4.70;;;4.30;;
71091;SDS011;58751;50.708;7.134;2022-08-16T14:26:33;12.03;;;3.90;;
71091;SDS011;58751;50.708;7.134;2022-08-16T14:28:58;7.50;;;4.13;;
71091;SDS011;58751;50.708;7.134;2022-08-16T14:31:24;3.63;;;3.33;;
71091;SDS011;58751;50.708;7.134;2022-08-16T14:33:49;3.50;;;3.10;;
71091;SDS011;58751;50.708;7.134;2022-08-16T14:36:14;4.60;;;4.20;;
71091;SDS011;58751;50.708;7.134;2022-08-16T14:38:39;5.13;;;3.50;;